Time;durP1;ratioP1;P1;durP2;ratioP2;P2;SDS_P1;SDS_P2;PMS_P1;PMS_P2;Temp;Humidity;BMP_temperature;BMP_pressure;BME280_temperature;BME280_humidity;BME280_pressure;Samples;Min_cycle;Max_cycle;Signal;HPM_P1;HPM_P2
2022/06/05 00:00:10;;;;;;;12.35;5.68;;;;;;;22.96;54.81;94859.38;4165884;28;20458;-58
2022/06/05 00:02:44;;;;;;;12.35;6.30;;;;;;;22.99;55.08;94848.22;4164383;28;20053;-56
2022/06/05 00:04:48;;;;;;;11.40;5.90;;;;;;;23.04;54.67;94856.41;4164119;28;20126;-54
2022/06/05 00:07:12;;;;;;;9.98;5.72;;;;;;;23.05;54.53;94847.31;4171622;28;20045;-54
2022/06/05 00:09:49;;;;;;;9.25;5.43;;;;;;;23.03;54.84;94847.56;4175506;28;20148;-57
2022/06/05 00:12:05;;;;;;;10.43;5.40;;;;;;;23.12;54.53;94848.00;4178584;28;20056;-56
2022/06/05 00:14:06;;;;;;;7.78;5.15;;;;;;;23.20;54.55;94847.66;4180005;28;20394;-58
2022/06/05 00:16:10;;;;;;;13.45;5.18;;;;;;;23.23;54.87;94849.88;4178470;28;20431;-56
2022/06/05 00:18:13;;;;;;;11.45;5.80;;;;;;;23.24;54.60;94850.69;4173912;28;20057;-58
2022/06/05 00:20:15;;;;;;;8.85;5.70;;;;;;;22.87;55.64;94841.03;4164592;28;20099;-57
2022/06/05 00:22:18;;;;;;;8.65;5.70;;;;;;;22.58;56.31;94849.94;4164297;28;20080;-56
2022/06/05 00:24:20;;;;;;;10.48;5.40;;;;;;;22.37;56.87;94845.94;4176621;28;20056;-56
2022/06/05 00:26:36;;;;;;;9.30;5.35;;;;;;;22.15;57.67;94846.44;4179654;28;20089;-56
2022/06/05 00:29:01;;;;;;;7.28;5.10;;;;;;;22.32;57.06;94851.97;4180318;28;20478;-57
2022/06/05 00:31:10;;;;;;;9.57;5.65;;;;;;;22.45;56.83;94858.97;4166131;28;20108;-56
2022/06/05 00:33:35;;;;;;;8.35;5.43;;;;;;;22.65;56.37;94862.16;4165629;28;20081;-56
2022/06/05 00:35:46;;;;;;;9.00;5.38;;;;;;;22.80;55.95;94855.53;4165934;28;20041;-56
2022/06/05 00:38:02;;;;;;;16.02;5.85;;;;;;;22.90;55.60;94867.25;4162116;28;20063;-55
2022/06/05 00:40:07;;;;;;;13.52;5.82;;;;;;;22.95;55.11;94869.25;4166572;28;20588;-55
2022/06/05 00:42:12;;;;;;;11.55;5.85;;;;;;;22.89;55.23;94873.66;4166558;28;20053;-56
2022/06/05 00:44:16;;;;;;;10.57;5.13;;;;;;;22.79;55.86;94868.06;4161764;28;20582;-57
2022/06/05 00:46:18;;;;;;;13.82;6.75;;;;;;;22.49;57.07;94866.28;4166199;28;20169;-56
2022/06/05 00:48:19;;;;;;;11.90;5.88;;;;;;;22.41;57.50;94858.63;4168340;28;20080;-56
2022/06/05 00:50:25;;;;;;;9.35;5.93;;;;;;;22.45;57.05;94864.31;4169644;28;20041;-57
2022/06/05 00:52:30;;;;;;;8.50;5.78;;;;;;;22.56;57.14;94860.84;4176909;28;20397;-56
2022/06/05 00:54:32;;;;;;;8.35;5.82;;;;;;;22.67;56.61;94857.41;4167781;28;20048;-56
2022/06/05 00:56:33;;;;;;;10.80;6.60;;;;;;;22.77;56.96;94864.00;4177605;28;20048;-56
2022/06/05 00:58:35;;;;;;;13.07;6.35;;;;;;;22.80;56.99;94859.03;4176167;28;20209;-57
2022/06/05 01:00:40;;;;;;;14.45;6.15;;;;;;;22.87;56.55;94857.06;4162467;28;20110;-57
2022/06/05 01:02:44;;;;;;;11.43;6.38;;;;;;;22.90;56.89;94856.59;4169461;28;20107;-57
2022/06/05 01:04:49;;;;;;;13.35;7.38;;;;;;;22.93;56.96;94859.84;4177088;28;20053;-57
2022/06/05 01:06:52;;;;;;;12.77;6.72;;;;;;;22.88;56.87;94857.88;4166895;28;20111;-56
2022/06/05 01:08:54;;;;;;;13.07;6.43;;;;;;;22.84;56.86;94851.34;4161225;28;20049;-57
2022/06/05 01:11:01;;;;;;;8.45;6.63;;;;;;;22.84;57.23;94851.34;4174075;28;20057;-58
2022/06/05 01:13:26;;;;;;;10.95;6.57;;;;;;;22.82;57.25;94856.13;4160295;28;20510;-57
2022/06/05 01:15:43;;;;;;;11.20;6.07;;;;;;;22.75;57.33;94855.41;4168416;28;20053;-56
2022/06/05 01:17:47;;;;;;;9.63;6.35;;;;;;;22.75;57.14;94856.22;4174364;28;20349;-57
2022/06/05 01:19:57;;;;;;;10.13;5.93;;;;;;;22.76;57.49;94855.19;4159843;28;20115;-56
2022/06/05 01:22:26;;;;;;;11.63;6.00;;;;;;;22.76;57.51;94860.53;4159338;28;20506;-55
2022/06/05 01:25:00;;;;;;;10.27;6.20;;;;;;;22.76;57.63;94863.22;4160566;28;20406;-56
2022/06/05 01:27:05;;;;;;;9.27;5.85;;;;;;;22.75;57.36;94858.09;4167639;28;20057;-54
2022/06/05 01:29:30;;;;;;;12.50;6.22;;;;;;;22.79;57.60;94851.25;4168779;28;20057;-57
2022/06/05 01:31:59;;;;;;;11.10;6.45;;;;;;;22.85;57.41;94858.34;4165916;28;20080;-56
2022/06/05 01:34:15;;;;;;;12.32;6.80;;;;;;;22.90;57.10;94845.91;4171205;28;20063;-55
2022/06/05 01:36:28;;;;;;;13.52;6.38;;;;;;;22.92;56.98;94851.00;4159574;28;20049;-57
2022/06/05 01:38:48;;;;;;;12.70;6.70;;;;;;;22.98;57.17;94851.94;4164421;28;20114;-55
2022/06/05 01:40:53;;;;;;;13.80;7.07;;;;;;;23.00;57.22;94856.03;4169486;28;20126;-55
2022/06/05 01:43:07;;;;;;;11.82;6.97;;;;;;;23.02;57.17;94855.81;4169808;28;20643;-55
2022/06/05 01:45:15;;;;;;;11.18;6.32;;;;;;;23.06;57.06;94849.78;4173800;28;20487;-56
2022/06/05 01:47:23;;;;;;;11.23;6.50;;;;;;;23.08;57.30;94861.03;4174472;28;20041;-56
2022/06/05 01:49:35;;;;;;;9.27;6.68;;;;;;;23.11;57.05;94851.75;4167676;28;20392;-54
2022/06/05 01:51:47;;;;;;;8.07;6.00;;;;;;;23.07;57.17;94846.03;4163122;28;20049;-56
2022/06/05 01:53:51;;;;;;;10.27;6.35;;;;;;;23.07;57.49;94847.91;4175207;28;20053;-56
2022/06/05 01:56:17;;;;;;;10.02;6.65;;;;;;;23.07;57.37;94846.03;4163581;28;20496;-57
2022/06/05 01:58:27;;;;;;;13.07;7.25;;;;;;;23.10;57.15;94842.91;4159147;28;20217;-57
2022/06/05 02:00:29;;;;;;;11.60;6.60;;;;;;;23.11;57.25;94851.75;4159801;28;20048;-57
2022/06/05 02:03:01;;;;;;;15.43;6.95;;;;;;;23.09;57.34;94848.50;4163449;28;20109;-56
2022/06/05 02:05:09;;;;;;;11.57;6.57;;;;;;;23.06;57.61;94843.63;4165155;28;20144;-56
2022/06/05 02:07:18;;;;;;;14.65;6.35;;;;;;;23.02;57.74;94839.78;4157910;28;20151;-54
2022/06/05 02:09:25;;;;;;;14.05;6.53;;;;;;;22.99;57.54;94838.34;4159160;28;20449;-53
2022/06/05 02:11:28;;;;;;;11.25;6.63;;;;;;;23.01;57.79;94844.28;4158923;28;20437;-57
2022/06/05 02:13:30;;;;;;;12.18;6.38;;;;;;;23.00;57.71;94833.84;4160422;28;20057;-56
2022/06/05 02:15:32;;;;;;;10.77;6.10;;;;;;;22.95;57.85;94836.38;4157809;28;20551;-55
2022/06/05 02:17:36;;;;;;;10.15;6.55;;;;;;;22.96;58.11;94843.34;4167219;28;20162;-56
2022/06/05 02:19:38;;;;;;;13.27;6.43;;;;;;;22.96;58.35;94838.81;4168363;28;20641;-58
2022/06/05 02:21:41;;;;;;;9.07;7.53;;;;;;;22.97;58.13;94845.78;4160054;28;20049;-56
2022/06/05 02:23:42;;;;;;;14.30;7.40;;;;;;;22.96;58.32;94846.03;4159538;28;20057;-56
2022/06/05 02:25:45;;;;;;;11.20;6.72;;;;;;;22.92;58.35;94840.31;4176114;28;20389;-54
2022/06/05 02:27:46;;;;;;;12.48;6.93;;;;;;;22.93;58.14;94838.47;4168799;28;20053;-54
2022/06/05 02:29:48;;;;;;;15.55;7.78;;;;;;;22.90;58.73;94842.41;4168185;28;20163;-57
2022/06/05 02:31:56;;;;;;;9.98;6.28;;;;;;;22.87;58.93;94843.69;4163520;28;20434;-57
2022/06/05 02:34:16;;;;;;;14.77;6.47;;;;;;;22.59;59.75;94835.56;4173008;28;20173;-58
2022/06/05 02:36:46;;;;;;;11.55;6.03;;;;;;;22.36;60.77;94837.13;4159362;28;20045;-58
2022/06/05 02:39:12;;;;;;;10.52;6.65;;;;;;;22.29;61.17;94847.09;4158989;28;20203;-56
2022/06/05 02:41:21;;;;;;;11.32;6.65;;;;;;;22.26;61.40;94835.03;4158699;28;20045;-56
2022/06/05 02:44:28;;;;;;;9.80;5.93;;;;;;;22.28;61.26;94832.13;4165072;28;20045;-57
2022/06/05 02:46:16;;;;;;;12.25;6.38;;;;;;;22.35;60.99;94827.50;4167501;28;20057;-56
2022/06/05 02:48:32;;;;;;;10.73;6.00;;;;;;;22.41;60.75;94826.59;4158790;28;20050;-57
2022/06/05 02:50:53;;;;;;;12.82;6.45;;;;;;;22.48;60.45;94821.16;4159392;28;20041;-56
2022/06/05 02:53:07;;;;;;;14.48;7.05;;;;;;;22.51;60.54;94826.03;4170194;28;20158;-55
2022/06/05 02:55:10;;;;;;;10.60;6.07;;;;;;;22.55;60.01;94826.38;4168376;28;20098;-57
2022/06/05 02:57:13;;;;;;;11.55;6.60;;;;;;;22.54;60.01;94825.53;4175563;28;20061;-56
2022/06/05 02:59:15;;;;;;;11.90;6.65;;;;;;;22.45;60.40;94819.72;4162327;28;20111;-57
2022/06/05 03:03:37;;;;;;;10.18;6.75;;;;;;;22.36;60.73;94818.44;4166476;28;20235;-59
2022/06/05 03:05:40;;;;;;;12.45;6.95;;;;;;;22.09;61.09;94823.34;4160099;28;20160;-55
2022/06/05 03:07:42;;;;;;;13.57;7.43;;;;;;;21.74;62.07;94821.38;4175302;28;20045;-55
2022/06/05 03:09:43;;;;;;;14.82;7.38;;;;;;;21.66;62.38;94819.84;4168232;28;20065;-56
2022/06/05 03:11:45;;;;;;;10.15;6.55;;;;;;;21.57;62.84;94829.16;4168259;28;20464;-56
2022/06/05 03:13:47;;;;;;;10.80;7.63;;;;;;;21.56;63.11;94832.06;4174464;28;20102;-56
2022/06/05 03:15:49;;;;;;;12.82;6.45;;;;;;;21.60;63.01;94835.91;4160574;28;20057;-57
2022/06/05 03:17:51;;;;;;;18.98;7.38;;;;;;;21.64;62.81;94832.56;4171315;28;20049;-56
2022/06/05 03:19:52;;;;;;;12.27;7.00;;;;;;;21.47;62.93;94840.38;4165305;28;20110;-56
2022/06/05 03:21:54;;;;;;;11.45;7.53;;;;;;;21.12;64.27;94845.44;4166124;28;20548;-55
2022/06/05 03:23:56;;;;;;;12.80;7.45;;;;;;;20.90;64.87;94849.56;4170652;28;20053;-55
2022/06/05 03:25:58;;;;;;;13.63;8.23;;;;;;;20.96;64.80;94848.69;4160462;28;20114;-57
2022/06/05 03:28:00;;;;;;;14.95;8.00;;;;;;;21.07;64.78;94837.28;4175426;28;20060;-52
2022/06/05 03:30:02;;;;;;;13.48;7.95;;;;;;;21.21;64.23;94845.97;4166468;28;20119;-54
2022/06/05 03:32:04;;;;;;;12.65;7.65;;;;;;;21.32;63.66;94845.22;4168099;28;20049;-54
2022/06/05 03:34:06;;;;;;;12.60;7.70;;;;;;;21.47;63.54;94845.69;4163274;28;20103;-54
2022/06/05 03:36:10;;;;;;;12.00;7.60;;;;;;;21.63;63.17;94846.94;4160882;28;20250;-55
2022/06/05 03:38:12;;;;;;;11.82;7.18;;;;;;;21.81;62.66;94847.94;4164235;28;20061;-53
2022/06/05 03:40:15;;;;;;;13.73;7.90;;;;;;;21.94;61.78;94842.44;4171054;28;20053;-55
2022/06/05 03:42:17;;;;;;;17.63;8.40;;;;;;;22.08;61.38;94854.53;4158733;28;20056;-54
2022/06/05 03:44:19;;;;;;;10.52;7.75;;;;;;;22.11;61.38;94852.47;4161108;28;20072;-54
2022/06/05 03:46:20;;;;;;;16.27;8.20;;;;;;;22.12;61.37;94854.09;4158128;28;20121;-57
2022/06/05 03:48:22;;;;;;;17.98;7.90;;;;;;;22.06;61.33;94855.81;4161790;28;20084;-56
2022/06/05 03:50:24;;;;;;;16.02;7.82;;;;;;;21.99;61.22;94849.78;4168955;28;20053;-55
2022/06/05 03:52:25;;;;;;;11.48;7.55;;;;;;;21.92;61.54;94855.19;4172206;28;20430;-55
2022/06/05 03:54:27;;;;;;;11.75;8.07;;;;;;;21.93;61.75;94867.47;4171649;28;20056;-56
2022/06/05 03:56:29;;;;;;;20.25;8.23;;;;;;;22.00;61.68;94857.53;4157795;28;20564;-57
2022/06/05 03:58:31;;;;;;;17.85;8.27;;;;;;;22.04;61.29;94863.22;4158620;28;20461;-58
2022/06/05 04:00:32;;;;;;;12.82;8.30;;;;;;;22.05;60.77;94867.53;4157025;28;20109;-56
2022/06/05 04:02:34;;;;;;;15.55;8.60;;;;;;;22.07;60.78;94863.59;4165481;28;20045;-55
2022/06/05 04:04:36;;;;;;;15.45;8.30;;;;;;;22.11;60.82;94871.13;4162098;28;20061;-55
2022/06/05 04:06:38;;;;;;;13.73;8.02;;;;;;;22.12;60.56;94870.13;4175555;28;20102;-55
2022/06/05 04:08:40;;;;;;;18.70;8.18;;;;;;;22.05;60.95;94870.22;4174136;28;20056;-57
2022/06/05 04:10:42;;;;;;;12.40;7.78;;;;;;;22.12;60.83;94870.13;4172366;28;20087;-57
2022/06/05 04:12:44;;;;;;;14.68;8.23;;;;;;;22.12;60.90;94864.78;4158931;28;20126;-56
2022/06/05 04:14:46;;;;;;;11.90;8.23;;;;;;;21.94;60.81;94866.44;4165353;28;20049;-57
2022/06/05 04:16:47;;;;;;;12.48;8.18;;;;;;;21.89;60.96;94866.28;4168640;28;20080;-56
2022/06/05 04:18:50;;;;;;;16.13;9.40;;;;;;;21.80;61.36;94859.66;4161504;28;20149;-56
2022/06/05 04:20:52;;;;;;;14.67;8.97;;;;;;;21.76;61.49;94866.47;4176082;28;20076;-54
2022/06/05 04:22:54;;;;;;;11.30;8.30;;;;;;;21.91;61.48;94856.22;4165754;28;20387;-54
2022/06/05 04:25:01;;;;;;;13.70;8.60;;;;;;;21.85;61.39;94857.13;4177139;28;20494;-56
2022/06/05 04:27:03;;;;;;;13.02;9.10;;;;;;;21.97;61.54;94854.50;4168732;28;20103;-56
2022/06/05 04:29:04;;;;;;;13.93;9.30;;;;;;;22.06;61.33;94855.81;4174367;28;21015;-54
2022/06/05 04:31:17;;;;;;;14.52;9.10;;;;;;;22.04;61.39;94849.88;4176043;28;20053;-53
2022/06/05 04:33:19;;;;;;;15.48;9.02;;;;;;;21.96;61.73;94851.03;4171941;28;20076;-55
2022/06/05 04:35:21;;;;;;;15.68;9.13;;;;;;;21.98;61.77;94854.25;4161558;28;20233;-54
2022/06/05 04:37:22;;;;;;;17.08;9.02;;;;;;;21.66;62.77;94853.66;4175021;28;20057;-56
2022/06/05 04:39:24;;;;;;;13.05;9.32;;;;;;;21.52;63.24;94850.34;4159879;28;20472;-56
2022/06/05 04:41:26;;;;;;;15.68;10.32;;;;;;;21.38;64.06;94846.19;4165417;28;20045;-56
2022/06/05 04:43:28;;;;;;;17.27;9.98;;;;;;;21.41;63.96;94843.09;4178045;28;20094;-55
2022/06/05 04:45:29;;;;;;;15.25;10.82;;;;;;;21.52;63.42;94847.69;4165074;28;20142;-55
2022/06/05 04:47:31;;;;;;;19.30;10.10;;;;;;;21.61;63.51;94849.00;4161452;28;20474;-54
2022/06/05 04:49:35;;;;;;;14.45;9.82;;;;;;;21.61;63.37;94843.66;4173756;28;20124;-54
2022/06/05 04:51:37;;;;;;;16.58;9.45;;;;;;;21.79;63.35;94840.19;4168380;28;20068;-55
2022/06/05 04:53:39;;;;;;;14.18;9.77;;;;;;;22.09;62.73;94834.00;4176907;28;20480;-56
2022/06/05 04:55:41;;;;;;;16.15;9.25;;;;;;;22.21;61.39;94834.88;4164984;28;20053;-55
2022/06/05 04:57:44;;;;;;;13.00;8.52;;;;;;;22.35;61.50;94843.53;4174717;28;20490;-56
2022/06/05 04:59:45;;;;;;;19.15;9.70;;;;;;;22.36;61.26;94845.13;4159012;28;20545;-54
2022/06/05 05:01:47;;;;;;;15.23;8.68;;;;;;;22.07;62.23;94847.59;4166960;28;20060;-56
2022/06/05 05:03:52;;;;;;;19.33;9.32;;;;;;;22.18;61.89;94847.88;4169149;28;20060;-57
2022/06/05 05:05:55;;;;;;;14.32;9.43;;;;;;;22.32;61.72;94851.16;4162438;28;20088;-56
2022/06/05 05:07:57;;;;;;;15.65;10.35;;;;;;;22.25;62.00;94857.41;4167071;28;20132;-55
2022/06/05 05:09:59;;;;;;;14.52;9.88;;;;;;;22.27;61.87;94857.19;4167982;28;20298;-57
2022/06/05 05:12:00;;;;;;;14.77;10.32;;;;;;;22.39;61.99;94854.53;4172472;28;20049;-57
2022/06/05 05:14:02;;;;;;;18.92;10.05;;;;;;;22.54;61.68;94852.25;4161844;28;20061;-56
2022/06/05 05:16:04;;;;;;;13.20;8.95;;;;;;;22.63;60.95;94858.91;4159522;28;20107;-57
2022/06/05 05:18:06;;;;;;;16.20;9.20;;;;;;;22.77;60.40;94856.81;4166549;28;20044;-57
2022/06/05 05:20:08;;;;;;;14.70;8.82;;;;;;;22.83;60.36;94855.09;4165877;28;20107;-56
2022/06/05 05:22:10;;;;;;;12.25;8.88;;;;;;;22.85;59.89;94861.81;4171640;28;20412;-57
2022/06/05 05:24:12;;;;;;;17.25;9.02;;;;;;;22.89;60.33;94857.63;4176017;28;20065;-55
2022/06/05 05:26:19;;;;;;;13.25;9.43;;;;;;;22.89;59.76;94870.19;4159631;28;20054;-55
2022/06/05 05:28:21;;;;;;;13.23;8.75;;;;;;;22.89;59.78;94870.19;4160528;28;20536;-56
2022/06/05 05:30:23;;;;;;;14.10;8.95;;;;;;;22.75;60.38;94879.47;4167041;28;20053;-55
2022/06/05 05:32:25;;;;;;;15.88;8.77;;;;;;;22.69;60.43;94871.34;4160435;28;20498;-59
2022/06/05 05:34:27;;;;;;;17.63;8.80;;;;;;;22.71;60.84;94879.09;4160755;28;20644;-56
2022/06/05 05:36:28;;;;;;;17.63;8.93;;;;;;;22.83;60.72;94877.25;4173699;28;20115;-56
2022/06/05 05:38:30;;;;;;;17.10;9.15;;;;;;;22.89;60.65;94870.19;4168877;28;20539;-56
2022/06/05 05:42:52;;;;;;;16.10;8.45;;;;;;;23.21;59.88;94868.00;4173820;28;20529;-55
2022/06/05 05:44:54;;;;;;;17.85;8.85;;;;;;;23.22;59.72;94869.63;4170226;28;20144;-54
2022/06/05 05:46:55;;;;;;;16.90;9.68;;;;;;;23.13;60.24;94873.69;4160423;28;20064;-55
2022/06/05 05:48:57;;;;;;;16.17;9.27;;;;;;;22.99;61.31;94873.06;4167950;28;20297;-55
2022/06/05 05:50:59;;;;;;;14.85;9.50;;;;;;;22.99;61.51;94869.59;4174226;28;20079;-56
2022/06/05 05:53:00;;;;;;;17.02;9.40;;;;;;;22.81;62.36;94873.19;4176704;28;20175;-56
2022/06/05 05:55:02;;;;;;;13.35;8.75;;;;;;;23.08;61.26;94863.72;4171491;28;20054;-56
2022/06/05 05:57:11;;;;;;;17.23;9.40;;;;;;;23.34;60.61;94866.13;4176573;28;20600;-56
2022/06/05 05:59:13;;;;;;;19.38;9.52;;;;;;;23.62;59.93;94866.19;4163050;28;20442;-57
2022/06/05 06:01:15;;;;;;;16.88;9.68;;;;;;;23.87;58.93;94873.13;4158374;28;20182;-58
2022/06/05 06:03:16;;;;;;;16.38;9.57;;;;;;;23.83;58.09;94874.66;4167501;28;20076;-57
2022/06/05 06:05:18;;;;;;;16.95;10.32;;;;;;;23.59;59.17;94874.69;4162504;28;20061;-53
2022/06/05 06:07:20;;;;;;;15.45;9.00;;;;;;;23.68;58.87;94875.13;4159579;28;20057;-55
2022/06/05 06:09:22;;;;;;;20.65;9.82;;;;;;;23.61;59.58;94872.56;4160386;28;20646;-57
2022/06/05 06:11:24;;;;;;;15.50;8.77;;;;;;;23.86;59.35;94882.22;4159211;28;20049;-61
2022/06/05 06:13:26;;;;;;;15.40;9.52;;;;;;;23.94;59.33;94876.50;4160451;28;20176;-57
2022/06/05 06:15:27;;;;;;;15.52;9.68;;;;;;;24.04;59.01;94890.03;4171085;28;20516;-57
2022/06/05 06:17:29;;;;;;;16.73;9.32;;;;;;;23.88;59.17;94882.78;4161505;28;20091;-57
2022/06/05 06:19:31;;;;;;;15.15;8.60;;;;;;;23.88;59.66;94880.13;4170101;28;20111;-56
2022/06/05 06:21:33;;;;;;;15.73;9.30;;;;;;;24.20;58.90;94879.63;4160006;28;20350;-57
2022/06/05 06:23:42;;;;;;;14.07;8.77;;;;;;;24.36;58.17;94886.88;4168896;28;20052;-55
2022/06/05 06:25:45;;;;;;;10.23;7.88;;;;;;;24.25;57.97;94874.38;4175228;28;20063;-55
2022/06/05 06:27:46;;;;;;;12.90;8.90;;;;;;;24.35;58.42;94876.41;4171788;28;20049;-55
2022/06/05 06:29:48;;;;;;;14.82;9.57;;;;;;;24.45;58.10;94879.28;4158414;28;20559;-56
2022/06/05 06:31:50;;;;;;;13.38;9.68;;;;;;;24.30;58.49;94879.81;4166568;28;20106;-58
2022/06/05 06:33:51;;;;;;;16.13;8.43;;;;;;;24.20;58.96;94876.94;4176621;28;20053;-55
2022/06/05 06:35:53;;;;;;;13.48;10.10;;;;;;;24.47;58.68;94880.66;4175528;28;20118;-56
2022/06/05 06:37:55;;;;;;;11.98;8.80;;;;;;;24.45;58.66;94876.59;4165014;28;20044;-55
2022/06/05 06:39:57;;;;;;;16.17;9.32;;;;;;;24.49;58.32;94883.94;4163047;28;20048;-57
2022/06/05 06:41:59;;;;;;;15.00;9.05;;;;;;;24.42;58.87;94871.75;4168950;28;20458;-57
2022/06/05 06:44:03;;;;;;;16.40;8.63;;;;;;;24.40;58.83;94871.97;4175527;28;20048;-58
2022/06/05 06:46:05;;;;;;;18.48;9.07;;;;;;;24.61;58.82;94864.31;4160148;28;20045;-56
2022/06/05 06:48:07;;;;;;;16.25;9.15;;;;;;;24.90;57.77;94868.53;4159635;28;20132;-55
2022/06/05 06:50:12;;;;;;;10.25;8.35;;;;;;;25.03;57.34;94874.63;4162975;28;20060;-58
2022/06/05 06:52:14;;;;;;;13.70;8.63;;;;;;;25.12;57.11;94876.66;4160941;28;20041;-58
2022/06/05 06:54:16;;;;;;;12.32;8.38;;;;;;;25.25;56.80;94872.84;4169983;28;20054;-54
2022/06/05 06:56:20;;;;;;;14.48;9.43;;;;;;;25.31;55.99;94879.06;4159477;28;20049;-57
2022/06/05 06:58:27;;;;;;;12.85;7.35;;;;;;;25.31;56.21;94863.00;4169069;28;20573;-53
2022/06/05 07:00:29;;;;;;;9.95;7.47;;;;;;;25.50;55.55;94863.50;4159609;28;20053;-55
2022/06/05 07:02:30;;;;;;;12.70;8.80;;;;;;;25.50;55.85;94869.69;4169079;28;20666;-56
2022/06/05 07:04:32;;;;;;;11.52;8.27;;;;;;;25.36;56.09;94863.06;4166777;28;20053;-56
2022/06/05 07:06:34;;;;;;;8.93;7.82;;;;;;;24.92;57.54;94863.75;4162642;28;20575;-54
2022/06/05 07:08:36;;;;;;;12.40;7.53;;;;;;;24.79;57.46;94866.75;4172647;28;20064;-57
2022/06/05 07:10:38;;;;;;;12.65;7.53;;;;;;;24.85;57.86;94857.75;4173438;28;20049;-55
2022/06/05 07:12:40;;;;;;;13.90;7.53;;;;;;;25.16;56.71;94854.72;4163102;28;20049;-57
2022/06/05 07:14:41;;;;;;;9.52;6.97;;;;;;;25.42;55.98;94862.06;4168105;28;20108;-56
2022/06/05 07:16:43;;;;;;;10.98;6.88;;;;;;;25.58;55.44;94857.72;4159004;28;20114;-56
2022/06/05 07:18:45;;;;;;;10.77;6.82;;;;;;;25.81;55.05;94853.97;4159581;28;20049;-56
2022/06/05 07:20:47;;;;;;;11.40;7.10;;;;;;;25.71;54.84;94870.75;4159781;28;20117;-57
2022/06/05 07:22:48;;;;;;;9.93;6.70;;;;;;;25.79;54.96;94871.38;4159076;28;20061;-57
2022/06/05 07:24:54;;;;;;;12.65;6.88;;;;;;;25.79;54.08;94874.06;4164698;28;20467;-57
2022/06/05 07:26:56;;;;;;;9.45;6.18;;;;;;;25.27;54.78;94869.91;4174513;28;20053;-56
2022/06/05 07:28:58;;;;;;;8.73;6.10;;;;;;;25.34;55.55;94862.50;4175844;28;20133;-57
2022/06/05 07:31:01;;;;;;;10.23;6.18;;;;;;;25.14;56.05;94863.81;4158845;28;20049;-55
2022/06/05 07:33:03;;;;;;;9.52;6.80;;;;;;;25.26;56.03;94854.88;4158181;28;20095;-54
2022/06/05 07:35:05;;;;;;;12.98;5.88;;;;;;;25.27;55.25;94856.50;4159287;28;20548;-55
2022/06/05 07:37:06;;;;;;;9.40;6.25;;;;;;;25.21;55.00;94861.00;4170532;28;20052;-55
2022/06/05 07:39:08;;;;;;;10.60;5.88;;;;;;;25.36;55.31;94854.19;4174281;28;20053;-57
2022/06/05 07:41:23;;;;;;;10.10;7.10;;;;;;;25.26;55.80;94858.38;4157826;28;20123;-56
2022/06/05 07:43:24;;;;;;;10.65;6.10;;;;;;;25.07;55.95;94860.47;4166026;28;20760;-57
2022/06/05 07:45:26;;;;;;;15.25;7.65;;;;;;;25.30;55.10;94846.09;4164133;28;20037;-57
2022/06/05 07:47:31;;;;;;;7.88;6.00;;;;;;;25.65;54.73;94836.88;4159539;28;20050;-57
2022/06/05 07:49:34;;;;;;;12.27;7.47;;;;;;;25.68;54.10;94831.03;4175530;28;20165;-56
2022/06/05 07:56:16;;;;;;;9.63;6.05;;;;;;;26.21;52.28;94831.34;4161572;28;20100;-58
2022/06/05 07:58:18;;;;;;;9.88;6.40;;;;;;;26.36;52.27;94834.16;4162361;28;20488;-58
2022/06/05 08:00:21;;;;;;;8.75;5.47;;;;;;;26.47;51.06;94837.75;4160053;28;20049;-58
2022/06/05 08:02:25;;;;;;;12.43;5.68;;;;;;;26.62;51.07;94828.25;4164220;28;20439;-58
2022/06/05 08:04:28;;;;;;;10.80;6.03;;;;;;;26.81;51.36;94828.66;4168741;28;20049;-57
2022/06/05 08:06:30;;;;;;;12.70;5.90;;;;;;;26.67;50.68;94828.28;4163585;28;20514;-58
2022/06/05 08:08:32;;;;;;;9.20;5.93;;;;;;;26.77;50.55;94834.53;4166081;28;20049;-58
2022/06/05 08:10:33;;;;;;;10.77;5.57;;;;;;;26.88;50.23;94840.81;4160908;28;20503;-58
2022/06/05 08:12:35;;;;;;;8.75;6.03;;;;;;;26.98;50.05;94829.31;4173005;28;20045;-58
2022/06/05 08:14:39;;;;;;;10.68;5.43;;;;;;;26.62;50.31;94842.47;4167661;28;20056;-62
2022/06/05 08:16:43;;;;;;;11.65;6.88;;;;;;;26.38;51.14;94841.97;4169542;28;20125;-57
2022/06/05 08:18:46;;;;;;;10.98;5.68;;;;;;;26.59;50.11;94826.88;4166965;28;20046;-57
2022/06/05 08:20:49;;;;;;;11.63;5.95;;;;;;;26.77;49.78;94839.09;4169298;28;20064;-57
2022/06/05 08:22:51;;;;;;;10.88;5.57;;;;;;;26.62;50.07;94823.69;4165372;28;20518;-58
2022/06/05 08:24:52;;;;;;;10.98;6.72;;;;;;;26.13;51.18;94843.34;4160583;28;20498;-56
2022/06/05 08:26:54;;;;;;;11.43;6.15;;;;;;;26.29;50.88;94832.78;4161895;28;20076;-56
2022/06/05 08:28:56;;;;;;;15.15;5.50;;;;;;;26.65;50.69;94830.41;4167534;28;20053;-56
2022/06/05 08:30:57;;;;;;;8.02;4.68;;;;;;;26.79;49.10;94833.50;4175772;28;20052;-57
2022/06/05 08:32:59;;;;;;;7.78;4.97;;;;;;;26.84;48.99;94828.13;4164241;28;20502;-57
2022/06/05 08:35:02;;;;;;;6.47;4.75;;;;;;;26.80;48.70;94830.53;4172305;28;20136;-56
2022/06/05 08:41:55;;;;;;;8.50;4.15;;;;;;;26.89;48.24;94831.69;4163413;28;20060;-57
2022/06/05 08:44:36;;;;;;;8.43;4.93;;;;;;;26.76;48.39;94824.06;4162029;28;20464;-55
2022/06/05 08:46:59;;;;;;;9.15;4.90;;;;;;;27.12;48.00;94821.59;4166592;28;20065;-57
2022/06/05 08:49:04;;;;;;;12.68;5.32;;;;;;;27.22;47.82;94815.50;4165384;28;20092;-57
2022/06/05 08:51:38;;;;;;;9.23;3.80;;;;;;;27.33;45.27;94828.75;4173823;28;20106;-57
2022/06/05 08:53:54;;;;;;;9.52;4.45;;;;;;;27.31;45.33;94830.88;4162258;28;20168;-57
2022/06/05 08:55:58;;;;;;;12.60;4.20;;;;;;;27.40;44.93;94825.00;4163348;28;20061;-57
2022/06/05 08:58:18;;;;;;;6.82;3.63;;;;;;;27.29;44.07;94822.25;4172273;28;20053;-57
2022/06/05 09:00:38;;;;;;;9.68;5.47;;;;;;;27.45;44.45;94819.66;4171115;28;20110;-58
2022/06/05 09:03:03;;;;;;;8.30;4.03;;;;;;;27.74;44.09;94812.78;4174251;28;20057;-57
2022/06/05 09:05:12;;;;;;;6.40;3.80;;;;;;;27.93;43.90;94812.34;4160785;28;20080;-57
2022/06/05 09:07:17;;;;;;;8.05;4.00;;;;;;;28.10;43.57;94817.50;4159321;28;20656;-57
2022/06/05 09:09:28;;;;;;;9.02;3.40;;;;;;;28.10;41.70;94815.59;4170421;28;20053;-57
2022/06/05 09:11:51;;;;;;;6.90;3.35;;;;;;;28.15;41.62;94814.81;4167611;28;20060;-57
2022/06/05 09:14:19;;;;;;;7.82;3.90;;;;;;;28.12;41.68;94807.28;4161563;28;20473;-56
2022/06/05 09:16:26;;;;;;;6.78;3.03;;;;;;;28.23;41.25;94811.59;4161105;28;20607;-58
2022/06/05 09:18:43;;;;;;;5.70;3.58;;;;;;;28.40;39.93;94811.34;4162997;28;20041;-57
2022/06/05 09:20:56;;;;;;;8.07;3.22;;;;;;;28.51;39.63;94806.81;4172717;28;20462;-56
2022/06/05 09:23:02;;;;;;;6.05;3.78;;;;;;;28.70;39.91;94801.69;4165463;28;20049;-56
2022/06/05 09:25:19;;;;;;;9.38;4.55;;;;;;;28.81;38.74;94803.28;4168883;28;20444;-57
2022/06/05 09:27:49;;;;;;;6.53;4.07;;;;;;;28.35;38.21;94812.16;4173674;28;20519;-56
2022/06/05 09:30:11;;;;;;;11.55;4.00;;;;;;;28.17;39.09;94808.06;4162349;28;20106;-56
2022/06/05 09:32:31;;;;;;;9.95;3.65;;;;;;;28.23;38.94;94794.63;4167085;28;20054;-54
2022/06/05 09:34:52;;;;;;;7.82;3.20;;;;;;;28.25;39.02;94808.63;4175328;28;20409;-57
2022/06/05 09:37:27;;;;;;;11.70;5.43;;;;;;;28.12;38.46;94793.81;4169054;28;20057;-56
2022/06/05 09:39:35;;;;;;;6.55;3.33;;;;;;;28.26;37.56;94804.84;4160749;28;20053;-56
2022/06/05 09:41:46;;;;;;;6.15;2.83;;;;;;;28.34;37.69;94801.63;4158866;28;20088;-57
2022/06/05 09:44:09;;;;;;;5.28;2.78;;;;;;;28.64;36.93;94792.78;4160963;28;20107;-57
2022/06/05 09:46:32;;;;;;;5.82;3.13;;;;;;;28.89;36.13;94789.25;4172041;28;20144;-57
2022/06/05 09:48:53;;;;;;;12.38;4.40;;;;;;;28.60;37.75;94802.47;4167481;28;20049;-57
2022/06/05 09:50:56;;;;;;;7.95;3.78;;;;;;;28.75;37.63;94794.38;4175072;28;20053;-57
2022/06/05 09:52:57;;;;;;;4.97;3.03;;;;;;;28.92;37.47;94791.41;4177479;28;20458;-57
2022/06/05 09:55:08;;;;;;;8.25;3.60;;;;;;;29.14;37.20;94790.31;4175833;28;20053;-57
2022/06/05 10:00:00;;;;;;;6.25;3.13;;;;;;;28.54;36.98;94796.28;4166866;28;20107;-56
2022/06/05 10:02:07;;;;;;;5.85;3.22;;;;;;;28.67;36.66;94789.53;4166925;28;20456;-58
2022/06/05 10:04:08;;;;;;;;;;;;;;;28.78;37.20;94779.56;4162732;28;20045;-56
2022/06/05 10:06:11;;;;;;;5.13;3.25;;;;;;;28.83;37.41;94784.97;4175571;28;20066;-58